createdAt,value
2022-12-23T00:00:04.947Z,11.250000
2022-12-23T00:01:00.301Z,11.250000
2022-12-23T00:02:00.592Z,11.250000
2022-12-23T00:03:00.465Z,0.000000
2022-12-23T00:04:01.653Z,0.000000
2022-12-23T00:05:04.405Z,0.000000
2022-12-23T00:06:00.436Z,0.000000
2022-12-23T00:07:00.321Z,0.000000
2022-12-23T00:08:00.402Z,22.500000
2022-12-23T00:09:00.424Z,22.500000
2022-12-23T00:10:04.834Z,22.500000
2022-12-23T00:11:00.335Z,45.000000
2022-12-23T00:12:00.454Z,45.000000
2022-12-23T00:13:00.362Z,0.000000
2022-12-23T00:14:00.440Z,0.000000
2022-12-23T00:15:03.562Z,22.500000
2022-12-23T00:16:00.549Z,22.500000
2022-12-23T00:17:00.433Z,22.500000
2022-12-23T00:18:00.677Z,67.500000
2022-12-23T00:19:00.421Z,67.500000
2022-12-23T00:20:04.959Z,67.500000
2022-12-23T00:21:06.604Z,11.250000
2022-12-23T00:22:00.507Z,11.250000
2022-12-23T00:23:00.481Z,11.250000
2022-12-23T00:24:00.565Z,0.000000
2022-12-23T00:25:03.614Z,0.000000
2022-12-23T00:26:01.559Z,0.000000
2022-12-23T00:27:00.491Z,0.000000
2022-12-23T00:28:00.527Z,0.000000
2022-12-23T00:29:00.545Z,0.000000
2022-12-23T00:30:04.930Z,0.000000
2022-12-23T00:31:00.504Z,11.250000
2022-12-23T00:32:00.623Z,11.250000
2022-12-23T00:33:00.551Z,11.250000
2022-12-23T00:34:00.580Z,33.750000
2022-12-23T00:35:03.642Z,33.750000
2022-12-23T00:36:00.734Z,33.750000
2022-12-23T00:37:00.522Z,33.750000
2022-12-23T00:38:00.595Z,78.750000
2022-12-23T00:39:00.550Z,78.750000
2022-12-23T00:40:06.940Z,78.750000
2022-12-23T00:41:00.560Z,56.250000
2022-12-23T00:42:00.707Z,56.250000
2022-12-23T00:43:00.571Z,56.250000
2022-12-23T00:44:00.635Z,45.000000
2022-12-23T00:45:03.719Z,45.000000
2022-12-23T00:46:00.726Z,45.000000
2022-12-23T00:47:00.610Z,0.000000
2022-12-23T00:48:01.601Z,0.000000
2022-12-23T00:49:00.626Z,22.500000
2022-12-23T00:50:05.433Z,22.500000
2022-12-23T00:51:00.667Z,22.500000
2022-12-23T00:52:01.619Z,22.500000
2022-12-23T00:53:00.665Z,22.500000
2022-12-23T00:54:00.807Z,45.000000
2022-12-23T00:55:03.689Z,45.000000
2022-12-23T00:56:01.554Z,45.000000
2022-12-23T00:57:00.710Z,0.000000
2022-12-23T00:58:00.780Z,0.000000
2022-12-23T00:59:00.723Z,45.000000
2022-12-23T01:00:05.122Z,45.000000
2022-12-23T01:01:00.761Z,45.000000
2022-12-23T01:02:00.978Z,45.000000
2022-12-23T01:03:00.847Z,45.000000
2022-12-23T01:04:01.564Z,56.250000
2022-12-23T01:05:03.870Z,56.250000
2022-12-23T01:06:00.879Z,56.250000
2022-12-23T01:07:00.764Z,0.000000
2022-12-23T01:08:00.871Z,0.000000
2022-12-23T01:09:00.778Z,0.000000
2022-12-23T01:10:05.112Z,0.000000
2022-12-23T01:11:00.795Z,0.000000
2022-12-23T01:12:00.891Z,0.000000
2022-12-23T01:13:00.815Z,0.000000
2022-12-23T01:14:00.884Z,0.000000
2022-12-23T01:15:03.938Z,45.000000
2022-12-23T01:16:00.894Z,45.000000
2022-12-23T01:17:00.897Z,0.000000
2022-12-23T01:18:00.924Z,0.000000
2022-12-23T01:19:00.841Z,0.000000
2022-12-23T01:20:05.249Z,0.000000
2022-12-23T01:21:00.868Z,0.000000
2022-12-23T01:22:00.942Z,0.000000
2022-12-23T01:23:00.861Z,0.000000
2022-12-23T01:24:00.984Z,0.000000
2022-12-23T01:25:04.065Z,0.000000
2022-12-23T01:26:01.574Z,0.000000
2022-12-23T01:27:00.910Z,0.000000
2022-12-23T01:28:00.967Z,0.000000
2022-12-23T01:29:00.911Z,0.000000
2022-12-23T01:30:05.304Z,0.000000
2022-12-23T01:31:00.938Z,0.000000
2022-12-23T01:32:01.063Z,22.500000
2022-12-23T01:33:00.964Z,22.500000
2022-12-23T01:34:01.587Z,22.500000
2022-12-23T01:35:04.025Z,33.750000
2022-12-23T01:36:01.080Z,33.750000
2022-12-23T01:37:00.971Z,22.500000
2022-12-23T01:38:01.049Z,22.500000
2022-12-23T01:39:01.007Z,22.500000
2022-12-23T01:40:05.357Z,45.000000
2022-12-23T01:41:01.030Z,45.000000
2022-12-23T01:42:01.162Z,45.000000
2022-12-23T01:43:01.001Z,45.000000
2022-12-23T01:44:01.092Z,11.250000
2022-12-23T01:45:05.563Z,11.250000
2022-12-23T01:46:01.174Z,11.250000
2022-12-23T01:47:01.064Z,56.250000
2022-12-23T01:48:01.186Z,56.250000
2022-12-23T01:49:01.093Z,0.000000
2022-12-23T01:50:04.394Z,0.000000
2022-12-23T01:51:01.117Z,0.000000
2022-12-23T01:52:01.174Z,22.500000
2022-12-23T01:53:06.959Z,22.500000
2022-12-23T01:54:01.661Z,11.250000
2022-12-23T01:55:05.247Z,11.250000
2022-12-23T01:56:01.222Z,11.250000
2022-12-23T01:57:01.136Z,33.750000
2022-12-23T01:58:01.234Z,33.750000
2022-12-23T01:59:01.144Z,0.000000
2022-12-23T02:00:05.575Z,0.000000
2022-12-23T02:01:01.366Z,0.000000
2022-12-23T02:02:01.830Z,90.000000
2022-12-23T02:03:01.346Z,90.000000
2022-12-23T02:04:01.261Z,45.000000
2022-12-23T02:05:04.323Z,45.000000
2022-12-23T02:06:01.654Z,45.000000
2022-12-23T02:07:01.231Z,0.000000
2022-12-23T02:08:01.289Z,0.000000
2022-12-23T02:09:01.269Z,0.000000
2022-12-23T02:10:05.612Z,45.000000
2022-12-23T02:11:00.258Z,45.000000
2022-12-23T02:12:00.376Z,45.000000
2022-12-23T02:13:00.262Z,22.500000
2022-12-23T02:14:01.662Z,22.500000
2022-12-23T02:15:03.376Z,0.000000
2022-12-23T02:16:00.401Z,0.000000
2022-12-23T02:17:00.468Z,45.000000
2022-12-23T02:18:00.366Z,45.000000
2022-12-23T02:19:00.429Z,45.000000
2022-12-23T02:20:04.697Z,45.000000
2022-12-23T02:21:00.321Z,45.000000
2022-12-23T02:22:00.411Z,45.000000
2022-12-23T02:23:00.337Z,56.250000
2022-12-23T02:24:00.428Z,56.250000
2022-12-23T02:25:03.438Z,56.250000
2022-12-23T02:26:00.410Z,56.250000
2022-12-23T02:27:00.353Z,33.750000
2022-12-23T02:28:01.839Z,33.750000
2022-12-23T02:29:00.385Z,33.750000
2022-12-23T02:30:04.848Z,0.000000
2022-12-23T02:31:00.477Z,0.000000
2022-12-23T02:32:01.636Z,0.000000
2022-12-23T02:33:00.430Z,0.000000
2022-12-23T02:34:00.513Z,0.000000
2022-12-23T02:35:03.533Z,0.000000
2022-12-23T02:36:01.629Z,0.000000
2022-12-23T02:37:00.425Z,0.000000
2022-12-23T02:38:00.507Z,78.750000
2022-12-23T02:39:00.465Z,78.750000
2022-12-23T02:40:05.401Z,67.500000
2022-12-23T02:41:00.475Z,67.500000
2022-12-23T02:42:00.551Z,67.500000
2022-12-23T02:43:00.484Z,11.250000
2022-12-23T02:44:00.581Z,11.250000
2022-12-23T02:45:03.555Z,33.750000
2022-12-23T02:46:00.632Z,33.750000
2022-12-23T02:47:00.527Z,33.750000
2022-12-23T02:48:00.610Z,67.500000
2022-12-23T02:49:00.531Z,67.500000
2022-12-23T02:50:04.839Z,56.250000
2022-12-23T02:51:00.559Z,56.250000
2022-12-23T02:52:00.644Z,56.250000
2022-12-23T02:53:00.555Z,33.750000
2022-12-23T02:54:01.600Z,33.750000
2022-12-23T02:55:05.646Z,33.750000
2022-12-23T02:56:00.650Z,67.500000
2022-12-23T02:57:00.592Z,67.500000
2022-12-23T02:58:00.679Z,45.000000
2022-12-23T02:59:00.591Z,45.000000
2022-12-23T03:00:05.021Z,33.750000
2022-12-23T03:01:00.610Z,33.750000
2022-12-23T03:02:00.829Z,33.750000
2022-12-23T03:03:00.914Z,33.750000
2022-12-23T03:04:00.986Z,33.750000
2022-12-23T03:05:03.775Z,33.750000
2022-12-23T03:06:00.736Z,33.750000
2022-12-23T03:07:07.131Z,33.750000
2022-12-23T03:08:01.580Z,22.500000
2022-12-23T03:09:00.705Z,22.500000
2022-12-23T03:10:05.085Z,33.750000
2022-12-23T03:11:00.685Z,33.750000
2022-12-23T03:12:01.610Z,33.750000
2022-12-23T03:13:00.701Z,33.750000
2022-12-23T03:14:00.765Z,33.750000
2022-12-23T03:15:03.951Z,22.500000
2022-12-23T03:16:01.699Z,22.500000
2022-12-23T03:17:00.719Z,22.500000
2022-12-23T03:18:00.791Z,33.750000
2022-12-23T03:19:00.753Z,33.750000
2022-12-23T03:20:05.214Z,11.250000
2022-12-23T03:21:00.755Z,11.250000
2022-12-23T03:22:00.838Z,11.250000
2022-12-23T03:23:00.779Z,33.750000
2022-12-23T03:24:00.846Z,33.750000
2022-12-23T03:25:03.789Z,33.750000
2022-12-23T03:26:01.588Z,45.000000
2022-12-23T03:27:00.798Z,45.000000
2022-12-23T03:28:00.882Z,45.000000
2022-12-23T03:29:00.774Z,67.500000
2022-12-23T03:30:05.367Z,67.500000
2022-12-23T03:31:00.829Z,45.000000
2022-12-23T03:32:00.898Z,45.000000
2022-12-23T03:33:00.831Z,45.000000
2022-12-23T03:34:01.618Z,45.000000
2022-12-23T03:35:05.386Z,45.000000
2022-12-23T03:36:00.923Z,33.750000
2022-12-23T03:37:00.852Z,33.750000
2022-12-23T03:38:00.917Z,33.750000
2022-12-23T03:39:00.854Z,56.250000
2022-12-23T03:40:04.125Z,56.250000
2022-12-23T03:41:00.882Z,56.250000
2022-12-23T03:42:00.976Z,56.250000
2022-12-23T03:43:00.868Z,56.250000
2022-12-23T03:44:00.949Z,45.000000
2022-12-23T03:45:37.051Z,45.000000
2022-12-23T03:46:01.030Z,67.500000
2022-12-23T03:47:00.898Z,67.500000
2022-12-23T03:48:01.615Z,67.500000
2022-12-23T03:49:00.899Z,56.250000
2022-12-23T03:50:04.332Z,56.250000
2022-12-23T03:51:00.954Z,56.250000
2022-12-23T03:52:01.623Z,67.500000
2022-12-23T03:53:00.915Z,67.500000
2022-12-23T03:54:01.040Z,56.250000
2022-12-23T03:55:05.098Z,56.250000
2022-12-23T03:56:01.616Z,45.000000
2022-12-23T03:57:00.981Z,45.000000
2022-12-23T03:58:01.035Z,45.000000
2022-12-23T03:59:01.029Z,45.000000
2022-12-23T04:00:05.555Z,45.000000
2022-12-23T04:01:01.032Z,56.250000
2022-12-23T04:02:01.306Z,56.250000
2022-12-23T04:03:01.106Z,56.250000
2022-12-23T04:04:01.711Z,45.000000
2022-12-23T04:05:05.131Z,45.000000
2022-12-23T04:06:01.143Z,45.000000
2022-12-23T04:07:01.032Z,67.500000
2022-12-23T04:08:01.137Z,67.500000
2022-12-23T04:09:01.052Z,22.500000
2022-12-23T04:10:05.419Z,22.500000
2022-12-23T04:11:01.047Z,22.500000
2022-12-23T04:12:01.146Z,33.750000
2022-12-23T04:13:01.085Z,33.750000
2022-12-23T04:14:01.166Z,78.750000
2022-12-23T04:15:12.342Z,78.750000
2022-12-23T04:16:01.169Z,78.750000
2022-12-23T04:17:01.092Z,78.750000
2022-12-23T04:18:01.219Z,78.750000
2022-12-23T04:19:01.076Z,45.000000
2022-12-23T04:20:05.464Z,45.000000
2022-12-23T04:21:01.118Z,56.250000
2022-12-23T04:22:01.167Z,56.250000
2022-12-23T04:23:01.115Z,56.250000
2022-12-23T04:24:01.198Z,45.000000
2022-12-23T04:25:05.389Z,45.000000
2022-12-23T04:26:01.229Z,45.000000
2022-12-23T04:27:01.167Z,45.000000
2022-12-23T04:28:01.210Z,45.000000
2022-12-23T04:29:01.159Z,56.250000
2022-12-23T04:30:06.384Z,56.250000
2022-12-23T04:31:01.224Z,56.250000
2022-12-23T04:32:01.296Z,56.250000
2022-12-23T04:33:01.205Z,56.250000
2022-12-23T04:34:00.296Z,67.500000
2022-12-23T04:35:04.334Z,67.500000
2022-12-23T04:36:00.287Z,67.500000
2022-12-23T04:37:00.232Z,67.500000
2022-12-23T04:38:00.316Z,67.500000
2022-12-23T04:39:00.297Z,67.500000
2022-12-23T04:40:04.668Z,67.500000
2022-12-23T04:41:00.238Z,67.500000
2022-12-23T04:42:00.330Z,33.750000
2022-12-23T04:43:00.274Z,33.750000
2022-12-23T04:44:00.333Z,33.750000
2022-12-23T04:45:03.379Z,33.750000
2022-12-23T04:46:00.334Z,33.750000
2022-12-23T04:47:00.303Z,33.750000
2022-12-23T04:48:00.363Z,33.750000
2022-12-23T04:49:00.299Z,11.250000
2022-12-23T04:50:04.637Z,11.250000
2022-12-23T04:51:00.318Z,45.000000
2022-12-23T04:52:00.390Z,45.000000
2022-12-23T04:53:00.338Z,45.000000
2022-12-23T04:54:00.416Z,45.000000
2022-12-23T04:55:03.325Z,45.000000
2022-12-23T04:56:00.405Z,45.000000
2022-12-23T04:57:00.329Z,45.000000
2022-12-23T04:58:00.386Z,45.000000
2022-12-23T04:59:00.344Z,22.500000
2022-12-23T05:00:05.521Z,22.500000
2022-12-23T05:01:00.414Z,22.500000
2022-12-23T05:02:00.726Z,22.500000
2022-12-23T05:03:00.514Z,22.500000
2022-12-23T05:04:00.456Z,33.750000
2022-12-23T05:05:03.436Z,33.750000
2022-12-23T05:06:00.533Z,33.750000
2022-12-23T05:07:00.399Z,56.250000
2022-12-23T05:08:00.481Z,56.250000
2022-12-23T05:09:00.434Z,56.250000
2022-12-23T05:10:04.825Z,56.250000
2022-12-23T05:11:00.409Z,56.250000
2022-12-23T05:12:00.492Z,45.000000
2022-12-23T05:13:00.440Z,45.000000
2022-12-23T05:14:00.560Z,45.000000
2022-12-23T05:15:04.962Z,45.000000
2022-12-23T05:16:00.526Z,45.000000
2022-12-23T05:17:06.983Z,33.750000
2022-12-23T05:18:00.556Z,33.750000
2022-12-23T05:19:00.488Z,33.750000
2022-12-23T05:20:04.831Z,22.500000
2022-12-23T05:21:00.487Z,22.500000
2022-12-23T05:22:00.581Z,45.000000
2022-12-23T05:23:00.488Z,45.000000
2022-12-23T05:24:00.580Z,45.000000
2022-12-23T05:25:05.056Z,33.750000
2022-12-23T05:26:00.630Z,33.750000
2022-12-23T05:27:00.777Z,45.000000
2022-12-23T05:28:00.612Z,45.000000
2022-12-23T05:29:00.556Z,45.000000
2022-12-23T05:30:05.079Z,33.750000
2022-12-23T05:31:00.551Z,33.750000
2022-12-23T05:32:00.692Z,33.750000
2022-12-23T05:33:00.717Z,33.750000
2022-12-23T05:34:05.987Z,33.750000
2022-12-23T05:35:04.740Z,56.250000
2022-12-23T05:36:00.676Z,56.250000
2022-12-23T05:37:00.609Z,90.000000
2022-12-23T05:38:00.903Z,90.000000
2022-12-23T05:39:00.626Z,90.000000
2022-12-23T05:40:04.123Z,67.500000
2022-12-23T05:41:00.665Z,67.500000
2022-12-23T05:42:00.714Z,45.000000
2022-12-23T05:43:00.633Z,45.000000
2022-12-23T05:44:00.723Z,45.000000
2022-12-23T05:45:04.828Z,45.000000
2022-12-23T05:46:00.818Z,45.000000
2022-12-23T05:47:00.653Z,67.500000
2022-12-23T05:48:00.732Z,67.500000
2022-12-23T05:49:00.657Z,67.500000
2022-12-23T05:50:05.091Z,67.500000
2022-12-23T05:51:00.689Z,67.500000
2022-12-23T05:52:00.783Z,67.500000
2022-12-23T05:53:00.691Z,45.000000
2022-12-23T05:54:00.804Z,45.000000
2022-12-23T05:55:04.831Z,22.500000
2022-12-23T05:56:00.794Z,22.500000
2022-12-23T05:57:00.728Z,22.500000
2022-12-23T05:58:00.799Z,11.250000
2022-12-23T05:59:00.728Z,11.250000
2022-12-23T06:00:08.153Z,45.000000
2022-12-23T06:01:01.804Z,45.000000
2022-12-23T06:02:02.011Z,78.750000
2022-12-23T06:03:01.996Z,78.750000
2022-12-23T06:04:01.987Z,78.750000
2022-12-23T06:05:05.926Z,33.750000
2022-12-23T06:06:01.906Z,33.750000
2022-12-23T06:07:02.012Z,90.000000
2022-12-23T06:08:01.873Z,90.000000
2022-12-23T06:09:01.858Z,90.000000
2022-12-23T06:10:06.426Z,56.250000
2022-12-23T06:11:01.842Z,56.250000
2022-12-23T06:12:01.919Z,67.500000
2022-12-23T06:13:01.871Z,67.500000
2022-12-23T06:14:01.924Z,67.500000
2022-12-23T06:15:06.028Z,45.000000
2022-12-23T06:16:01.989Z,45.000000
2022-12-23T06:17:01.945Z,45.000000
2022-12-23T06:18:01.983Z,22.500000
2022-12-23T06:19:01.929Z,22.500000
2022-12-23T06:20:07.000Z,78.750000
2022-12-23T06:21:01.932Z,78.750000
2022-12-23T06:22:01.979Z,90.000000
2022-12-23T06:23:01.913Z,90.000000
2022-12-23T06:24:02.011Z,90.000000
2022-12-23T06:25:05.368Z,0.000000
2022-12-23T06:26:02.030Z,0.000000
2022-12-23T06:27:01.960Z,0.000000
2022-12-23T06:28:02.024Z,56.250000
2022-12-23T06:29:01.957Z,56.250000
2022-12-23T06:30:06.542Z,56.250000
2022-12-23T06:31:01.971Z,45.000000
2022-12-23T06:32:02.159Z,45.000000
2022-12-23T06:33:01.997Z,45.000000
2022-12-23T06:34:02.064Z,45.000000
2022-12-23T06:35:06.135Z,56.250000
2022-12-23T06:36:02.123Z,56.250000
2022-12-23T06:37:02.012Z,56.250000
2022-12-23T06:38:02.079Z,11.250000
2022-12-23T06:39:01.036Z,11.250000
2022-12-23T06:40:05.580Z,11.250000
2022-12-23T06:41:01.115Z,56.250000
2022-12-23T06:42:01.189Z,56.250000
2022-12-23T06:43:01.075Z,11.250000
2022-12-23T06:44:01.137Z,11.250000
2022-12-23T06:45:04.150Z,0.000000
2022-12-23T06:46:01.232Z,0.000000
2022-12-23T06:47:01.101Z,0.000000
2022-12-23T06:48:01.171Z,0.000000
2022-12-23T06:49:01.095Z,0.000000
2022-12-23T06:50:05.442Z,0.000000
2022-12-23T06:51:01.127Z,0.000000
2022-12-23T06:52:01.197Z,0.000000
2022-12-23T06:53:01.144Z,0.000000
2022-12-23T06:54:01.239Z,0.000000
2022-12-23T06:55:05.365Z,0.000000
2022-12-23T06:56:01.250Z,0.000000
2022-12-23T06:57:01.170Z,0.000000
2022-12-23T06:58:01.245Z,0.000000
2022-12-23T06:59:01.154Z,0.000000
2022-12-23T07:00:05.619Z,0.000000
2022-12-23T07:01:01.232Z,45.000000
2022-12-23T07:02:00.526Z,45.000000
2022-12-23T07:03:00.419Z,45.000000
2022-12-23T07:04:00.275Z,90.000000
2022-12-23T07:05:03.501Z,90.000000
2022-12-23T07:06:00.313Z,78.750000
2022-12-23T07:07:00.235Z,78.750000
2022-12-23T07:08:00.321Z,67.500000
2022-12-23T07:09:00.259Z,67.500000
2022-12-23T07:10:04.683Z,67.500000
2022-12-23T07:11:00.283Z,22.500000
2022-12-23T07:12:00.366Z,22.500000
2022-12-23T07:13:00.264Z,22.500000
2022-12-23T07:14:00.408Z,67.500000
2022-12-23T07:15:04.911Z,67.500000
2022-12-23T07:16:00.439Z,67.500000
2022-12-23T07:17:00.358Z,56.250000
2022-12-23T07:18:00.402Z,56.250000
2022-12-23T07:19:00.336Z,45.000000
2022-12-23T07:20:04.682Z,45.000000
2022-12-23T07:21:00.382Z,56.250000
2022-12-23T07:22:00.443Z,56.250000
2022-12-23T07:23:00.369Z,56.250000
2022-12-23T07:24:00.481Z,33.750000
2022-12-23T07:25:04.555Z,33.750000
2022-12-23T07:26:00.442Z,45.000000
2022-12-23T07:27:00.391Z,45.000000
2022-12-23T07:28:00.505Z,45.000000
2022-12-23T07:29:00.394Z,33.750000
2022-12-23T07:30:04.892Z,33.750000
2022-12-23T07:31:00.495Z,33.750000
2022-12-23T07:32:00.549Z,33.750000
2022-12-23T07:33:00.450Z,33.750000
2022-12-23T07:34:00.547Z,56.250000
2022-12-23T07:35:04.553Z,56.250000
2022-12-23T07:36:00.524Z,56.250000
2022-12-23T07:37:00.451Z,56.250000
2022-12-23T07:38:00.524Z,56.250000
2022-12-23T07:39:00.478Z,56.250000
2022-12-23T07:40:08.612Z,56.250000
2022-12-23T07:41:00.488Z,45.000000
2022-12-23T07:42:33.573Z,45.000000
2022-12-23T07:43:00.486Z,33.750000
2022-12-23T07:44:00.796Z,33.750000
2022-12-23T07:45:04.707Z,33.750000
2022-12-23T07:46:01.268Z,67.500000
2022-12-23T07:47:00.529Z,67.500000
2022-12-23T07:48:00.632Z,67.500000
2022-12-23T07:49:00.537Z,56.250000
2022-12-23T07:50:03.969Z,56.250000
2022-12-23T07:51:00.561Z,67.500000
2022-12-23T07:52:00.659Z,67.500000
2022-12-23T07:53:00.566Z,78.750000
2022-12-23T07:54:00.673Z,78.750000
2022-12-23T07:55:04.711Z,78.750000
2022-12-23T07:56:00.640Z,78.750000
2022-12-23T07:57:00.585Z,78.750000
2022-12-23T07:58:00.653Z,78.750000
2022-12-23T07:59:00.592Z,45.000000
2022-12-23T08:00:05.008Z,45.000000
2022-12-23T08:01:00.703Z,67.500000
2022-12-23T08:02:01.624Z,67.500000
2022-12-23T08:03:00.911Z,56.250000
2022-12-23T08:04:00.782Z,56.250000
2022-12-23T08:05:04.905Z,56.250000
2022-12-23T08:06:01.138Z,56.250000
2022-12-23T08:07:00.672Z,33.750000
2022-12-23T08:08:00.754Z,33.750000
2022-12-23T08:09:00.691Z,11.250000
2022-12-23T08:10:05.612Z,11.250000
2022-12-23T08:11:00.707Z,11.250000
2022-12-23T08:12:00.775Z,0.000000
2022-12-23T08:13:00.739Z,0.000000
2022-12-23T08:14:00.790Z,0.000000
2022-12-23T08:15:03.745Z,0.000000
2022-12-23T08:16:00.862Z,45.000000
2022-12-23T08:17:00.776Z,45.000000
2022-12-23T08:18:00.826Z,45.000000
2022-12-23T08:19:00.768Z,33.750000
2022-12-23T08:20:05.112Z,33.750000
2022-12-23T08:21:00.788Z,33.750000
2022-12-23T08:22:00.876Z,78.750000
2022-12-23T08:23:00.777Z,78.750000
2022-12-23T08:24:00.863Z,67.500000
2022-12-23T08:25:05.077Z,67.500000
2022-12-23T08:26:00.881Z,67.500000
2022-12-23T08:27:00.829Z,67.500000
2022-12-23T08:28:00.912Z,67.500000
2022-12-23T08:29:00.825Z,90.000000
2022-12-23T08:30:05.196Z,90.000000
2022-12-23T08:31:00.875Z,90.000000
2022-12-23T08:32:00.933Z,45.000000
2022-12-23T08:33:00.869Z,45.000000
2022-12-23T08:34:00.930Z,45.000000
2022-12-23T08:35:04.052Z,22.500000
2022-12-23T08:36:00.936Z,22.500000
2022-12-23T08:37:00.860Z,45.000000
2022-12-23T08:38:00.965Z,45.000000
2022-12-23T08:39:00.886Z,78.750000
2022-12-23T08:40:05.316Z,78.750000
2022-12-23T08:41:00.929Z,78.750000
2022-12-23T08:42:00.959Z,33.750000
2022-12-23T08:43:00.916Z,33.750000
2022-12-23T08:44:01.008Z,33.750000
2022-12-23T08:45:04.188Z,78.750000
2022-12-23T08:46:01.139Z,78.750000
2022-12-23T08:47:00.950Z,67.500000
2022-12-23T08:48:01.054Z,67.500000
2022-12-23T08:49:00.975Z,67.500000
2022-12-23T08:50:05.344Z,67.500000
2022-12-23T08:51:00.988Z,45.000000
2022-12-23T08:52:01.101Z,45.000000
2022-12-23T08:53:00.994Z,45.000000
2022-12-23T08:54:01.544Z,45.000000
2022-12-23T08:55:05.451Z,45.000000
2022-12-23T08:56:01.068Z,45.000000
2022-12-23T08:57:01.036Z,56.250000
2022-12-23T08:58:01.102Z,56.250000
2022-12-23T08:59:01.022Z,56.250000
2022-12-23T09:00:05.468Z,56.250000
2022-12-23T09:01:01.125Z,56.250000
2022-12-23T09:02:01.316Z,45.000000
2022-12-23T09:03:01.216Z,45.000000
2022-12-23T09:04:01.947Z,78.750000
2022-12-23T09:05:05.661Z,78.750000
2022-12-23T09:06:02.087Z,78.750000
2022-12-23T09:07:01.085Z,45.000000
2022-12-23T09:08:01.593Z,45.000000
2022-12-23T09:09:01.107Z,45.000000
2022-12-23T09:10:06.062Z,45.000000
2022-12-23T09:11:01.105Z,45.000000
2022-12-23T09:12:01.679Z,56.250000
2022-12-23T09:13:01.123Z,56.250000
2022-12-23T09:14:01.921Z,56.250000
2022-12-23T09:15:05.338Z,45.000000
2022-12-23T09:16:01.357Z,45.000000
2022-12-23T09:17:01.142Z,78.750000
2022-12-23T09:18:01.216Z,78.750000
2022-12-23T09:19:01.160Z,78.750000
2022-12-23T09:20:04.730Z,11.250000
2022-12-23T09:21:01.210Z,11.250000
2022-12-23T09:22:02.094Z,22.500000
2022-12-23T09:23:01.186Z,22.500000
2022-12-23T09:24:01.301Z,22.500000
2022-12-23T09:25:05.669Z,33.750000
2022-12-23T09:26:01.668Z,33.750000
2022-12-23T09:27:01.244Z,33.750000
2022-12-23T09:28:02.157Z,33.750000
2022-12-23T09:29:01.237Z,33.750000
2022-12-23T09:30:05.109Z,33.750000
2022-12-23T09:31:00.322Z,33.750000
2022-12-23T09:32:00.509Z,33.750000
2022-12-23T09:33:00.279Z,67.500000
2022-12-23T09:34:00.781Z,67.500000
2022-12-23T09:35:04.432Z,0.000000
2022-12-23T09:36:01.144Z,0.000000
2022-12-23T09:37:00.290Z,0.000000
2022-12-23T09:38:01.383Z,22.500000
2022-12-23T09:39:00.321Z,22.500000
2022-12-23T09:40:03.819Z,11.250000
2022-12-23T09:41:00.317Z,11.250000
2022-12-23T09:42:00.419Z,11.250000
2022-12-23T09:43:00.314Z,0.000000
2022-12-23T09:44:00.868Z,0.000000
2022-12-23T09:45:04.744Z,11.250000
2022-12-23T09:46:01.271Z,11.250000
2022-12-23T09:47:00.468Z,11.250000
2022-12-23T09:48:00.424Z,11.250000
2022-12-23T09:49:00.369Z,11.250000
2022-12-23T09:50:03.881Z,11.250000
2022-12-23T09:51:00.430Z,22.500000
2022-12-23T09:52:00.482Z,22.500000
2022-12-23T09:53:00.389Z,22.500000
2022-12-23T09:54:01.220Z,22.500000
2022-12-23T09:55:04.657Z,22.500000
2022-12-23T09:56:00.465Z,11.250000
2022-12-23T09:57:00.461Z,11.250000
2022-12-23T09:58:00.484Z,22.500000
2022-12-23T09:59:00.423Z,22.500000
2022-12-23T10:00:05.319Z,22.500000
2022-12-23T10:01:00.459Z,11.250000
2022-12-23T10:02:00.699Z,11.250000
2022-12-23T10:03:00.781Z,22.500000
2022-12-23T10:04:00.587Z,22.500000
2022-12-23T10:05:03.553Z,22.500000
2022-12-23T10:06:00.581Z,45.000000
2022-12-23T10:07:02.972Z,45.000000
2022-12-23T10:08:00.587Z,33.750000
2022-12-23T10:09:00.549Z,33.750000
2022-12-23T10:10:04.839Z,33.750000
2022-12-23T10:11:00.503Z,11.250000
2022-12-23T10:12:00.579Z,11.250000
2022-12-23T10:13:00.535Z,11.250000
2022-12-23T10:14:00.592Z,0.000000
2022-12-23T10:15:04.709Z,0.000000
2022-12-23T10:16:00.696Z,11.250000
2022-12-23T10:17:00.554Z,11.250000
2022-12-23T10:18:00.644Z,22.500000
2022-12-23T10:19:00.577Z,22.500000
2022-12-23T10:20:05.575Z,11.250000
2022-12-23T10:21:00.603Z,11.250000
2022-12-23T10:22:00.747Z,11.250000
2022-12-23T10:23:00.609Z,33.750000
2022-12-23T10:24:00.722Z,33.750000
2022-12-23T10:25:03.811Z,33.750000
2022-12-23T10:26:00.941Z,11.250000
2022-12-23T10:27:00.643Z,11.250000
2022-12-23T10:28:01.325Z,11.250000
2022-12-23T10:29:00.607Z,11.250000
2022-12-23T10:30:26.505Z,11.250000
2022-12-23T10:32:01.580Z,11.250000
2022-12-23T10:33:00.664Z,11.250000
2022-12-23T10:34:01.797Z,11.250000
2022-12-23T10:35:03.852Z,11.250000
2022-12-23T10:36:00.892Z,11.250000
2022-12-23T10:37:00.870Z,11.250000
2022-12-23T10:38:02.001Z,11.250000
2022-12-23T10:39:00.708Z,11.250000
2022-12-23T10:40:05.552Z,11.250000
2022-12-23T10:41:05.366Z,22.500000
2022-12-23T10:42:00.810Z,22.500000
2022-12-23T10:43:00.732Z,22.500000
2022-12-23T10:44:01.117Z,22.500000
2022-12-23T10:45:04.065Z,22.500000
2022-12-23T10:46:01.527Z,22.500000
2022-12-23T10:47:00.858Z,22.500000
2022-12-23T10:48:02.158Z,22.500000
2022-12-23T10:49:00.776Z,22.500000
2022-12-23T10:50:05.404Z,22.500000
2022-12-23T10:51:00.780Z,11.250000
2022-12-23T10:52:00.841Z,11.250000
2022-12-23T10:53:00.789Z,11.250000
2022-12-23T10:54:01.864Z,11.250000
2022-12-23T10:55:05.357Z,11.250000
2022-12-23T10:56:00.999Z,11.250000
2022-12-23T10:57:00.832Z,11.250000
2022-12-23T10:58:00.927Z,22.500000
2022-12-23T10:59:00.821Z,22.500000
2022-12-23T11:00:04.293Z,22.500000
2022-12-23T11:01:00.919Z,22.500000
2022-12-23T11:02:01.145Z,22.500000
2022-12-23T11:03:00.973Z,11.250000
2022-12-23T11:04:00.975Z,11.250000
2022-12-23T11:05:05.071Z,11.250000
2022-12-23T11:06:01.001Z,22.500000
2022-12-23T11:07:41.642Z,22.500000
2022-12-23T11:08:00.992Z,22.500000
2022-12-23T11:09:00.895Z,22.500000
2022-12-23T11:10:04.368Z,22.500000
2022-12-23T11:11:00.904Z,11.250000
2022-12-23T11:12:01.071Z,11.250000
2022-12-23T11:13:00.906Z,11.250000
2022-12-23T11:14:01.086Z,11.250000
2022-12-23T11:15:05.078Z,11.250000
2022-12-23T11:16:01.126Z,45.000000
2022-12-23T11:17:00.948Z,45.000000
2022-12-23T11:18:01.089Z,45.000000
2022-12-23T11:19:00.972Z,11.250000
2022-12-23T11:20:05.593Z,11.250000
2022-12-23T11:21:00.956Z,22.500000
2022-12-23T11:22:01.082Z,22.500000
2022-12-23T11:23:00.975Z,22.500000
2022-12-23T11:24:01.040Z,22.500000
2022-12-23T11:25:04.063Z,22.500000
2022-12-23T11:26:01.122Z,22.500000
2022-12-23T11:27:01.028Z,22.500000